Terminal Aerodrome Forecast
Issued by NWS

Home | Current Version | Previous Version | Text Only | Print | Product List | Glossary On
Versions: 1 2 3 4 5 6 7 8 9 10 11 12 13 14
000
FTUS44 KLZK 022020 AAA
TAFLIT
TAF AMD
KLIT 022020Z 0220/0318 VRB04KT P6SM VCTS SCT050CB
     FM030100 VRB03KT P6SM FEW250
     FM031500 20005KT P6SM FEW040=

USA.gov is the U.S. government's official web portal to all federal, state and local government web resources and services.